createdAt,value
2023-01-30T00:02:36.153Z,100426.22
2023-01-30T00:07:37.739Z,100409.94
2023-01-30T00:12:39.740Z,100388.41
2023-01-30T00:17:41.347Z,100388.28
2023-01-30T00:22:52.411Z,100389.06
2023-01-30T00:28:01.745Z,100385.50
2023-01-30T00:33:03.545Z,100374.28
2023-01-30T00:38:05.169Z,100383.88
2023-01-30T00:43:25.287Z,100381.19
2023-01-30T00:48:27.563Z,100376.06
2023-01-30T00:53:29.178Z,100358.00
2023-01-30T00:58:30.784Z,100349.34
2023-01-30T01:03:32.414Z,100317.63
2023-01-30T01:08:34.023Z,100320.16
2023-01-30T01:13:35.661Z,100335.69
2023-01-30T01:18:37.261Z,100310.81
2023-01-30T01:23:39.339Z,100303.06
2023-01-30T01:28:40.946Z,100285.91
2023-01-30T01:33:42.653Z,100271.22
2023-01-30T01:38:44.749Z,100266.16
2023-01-30T01:44:09.148Z,100260.00
2023-01-30T01:49:32.486Z,100246.31
2023-01-30T01:54:51.571Z,100247.31
2023-01-30T01:59:59.853Z,100241.97
2023-01-30T02:05:06.613Z,100241.03
2023-01-30T02:10:13.813Z,100237.56
2023-01-30T02:15:17.582Z,100229.94
2023-01-30T02:20:29.405Z,100231.72
2023-01-30T02:25:59.945Z,100206.59
2023-01-30T02:31:32.597Z,100221.19
2023-01-30T02:37:00.233Z,100235.69
2023-01-30T02:42:14.767Z,100243.44
2023-01-30T02:47:24.368Z,100240.03
2023-01-30T02:52:27.469Z,100234.06
2023-01-30T02:57:29.077Z,100221.78
2023-01-30T03:03:09.863Z,100197.97
2023-01-30T03:08:28.912Z,100196.88
2023-01-30T03:13:46.655Z,100183.38
2023-01-30T03:18:49.508Z,100167.72
2023-01-30T03:23:51.107Z,100156.69
2023-01-30T03:28:53.092Z,100148.72
2023-01-30T03:33:54.701Z,100159.19
2023-01-30T03:38:56.323Z,100162.41
2023-01-30T03:43:57.899Z,100151.28
2023-01-30T03:48:59.487Z,100137.34
2023-01-30T03:54:01.291Z,100149.22
2023-01-30T03:59:02.925Z,100139.53
2023-01-30T04:04:04.575Z,100130.06
2023-01-30T04:09:06.172Z,100122.09
2023-01-30T04:14:07.781Z,100092.34
2023-01-30T04:19:09.404Z,100100.19
2023-01-30T04:24:11.133Z,100083.13
2023-01-30T04:29:12.753Z,100069.03
2023-01-30T04:34:14.378Z,100056.91
2023-01-30T04:39:15.979Z,100066.59
2023-01-30T04:44:17.624Z,100056.31
2023-01-30T04:49:19.221Z,100052.56
2023-01-30T04:54:20.893Z,100044.97
2023-01-30T04:59:22.486Z,100052.78
2023-01-30T05:04:24.052Z,100028.03
2023-01-30T05:09:25.668Z,100032.44
2023-01-30T05:14:27.248Z,100020.53
2023-01-30T05:19:28.861Z,100018.88
2023-01-30T05:24:30.464Z,99993.81
2023-01-30T05:29:32.072Z,99989.38
2023-01-30T05:34:33.647Z,99984.03
2023-01-30T05:39:35.302Z,99996.97
2023-01-30T05:44:36.913Z,99979.63
2023-01-30T05:49:38.562Z,99984.03
2023-01-30T05:54:40.166Z,99971.75
2023-01-30T05:59:41.780Z,99971.84
2023-01-30T06:04:43.359Z,99976.56
2023-01-30T06:09:44.934Z,99972.28
2023-01-30T06:14:46.495Z,99979.31
2023-01-30T06:19:48.112Z,99992.44
2023-01-30T06:24:49.752Z,99982.72
2023-01-30T06:29:51.461Z,99988.66
2023-01-30T06:34:53.044Z,99979.19
2023-01-30T06:39:54.631Z,99988.75
2023-01-30T06:44:56.379Z,99992.19
2023-01-30T06:49:57.970Z,99994.13
2023-01-30T06:54:59.704Z,99994.00
2023-01-30T07:00:01.274Z,99993.44
2023-01-30T07:05:03.686Z,100030.19
2023-01-30T07:10:08.936Z,100016.63
2023-01-30T07:15:11.043Z,100024.41
2023-01-30T07:20:12.789Z,100015.81
2023-01-30T07:25:14.429Z,100010.25
2023-01-30T07:30:16.250Z,100035.22
2023-01-30T07:35:18.211Z,100028.25
2023-01-30T07:40:21.175Z,100024.59
2023-01-30T07:45:22.760Z,100023.69
2023-01-30T07:50:24.439Z,100027.09
2023-01-30T07:55:27.165Z,100010.31
2023-01-30T08:00:29.088Z,100003.34
2023-01-30T08:05:30.686Z,100002.50
2023-01-30T08:10:32.294Z,100007.84
2023-01-30T08:15:33.887Z,99991.00
2023-01-30T08:20:36.273Z,100014.09
2023-01-30T08:25:38.070Z,100020.97
2023-01-30T08:30:41.959Z,100026.69
2023-01-30T08:35:44.643Z,100012.00
2023-01-30T08:40:46.244Z,100007.81
2023-01-30T08:45:47.824Z,99998.16
2023-01-30T08:50:54.149Z,99985.50
2023-01-30T08:55:55.782Z,99987.81
2023-01-30T09:00:57.393Z,99980.75
2023-01-30T09:05:59.044Z,100002.47
2023-01-30T09:11:02.465Z,99992.25
2023-01-30T09:16:06.376Z,100008.34
2023-01-30T09:21:09.350Z,100008.31
2023-01-30T09:26:11.012Z,100009.91
2023-01-30T09:31:12.700Z,100009.47
2023-01-30T09:36:14.559Z,100017.66
2023-01-30T09:41:43.668Z,100032.25
2023-01-30T09:47:00.921Z,100044.13
2023-01-30T09:52:17.103Z,100017.84
2023-01-30T09:57:24.673Z,100003.63
2023-01-30T10:02:47.560Z,100010.81
2023-01-30T10:07:52.137Z,100013.41
2023-01-30T10:13:11.653Z,100006.94
2023-01-30T10:18:41.168Z,100010.91
2023-01-30T10:24:01.623Z,100017.16
2023-01-30T10:29:08.616Z,100000.00
2023-01-30T10:34:25.254Z,99992.03
2023-01-30T10:39:38.726Z,99995.63
2023-01-30T10:44:42.962Z,99994.44
2023-01-30T10:49:52.634Z,99995.44
2023-01-30T10:55:01.786Z,99994.44
2023-01-30T11:00:17.397Z,100008.75
2023-01-30T11:05:24.381Z,100004.03
2023-01-30T11:10:28.007Z,99996.34
2023-01-30T11:15:40.715Z,99996.09
2023-01-30T11:20:47.947Z,99989.19
2023-01-30T11:26:05.458Z,99987.97
2023-01-30T11:31:38.936Z,99996.69
2023-01-30T11:36:42.597Z,100010.00
2023-01-30T11:42:05.860Z,100002.94
2023-01-30T11:47:13.111Z,100016.63
2023-01-30T11:52:18.838Z,100009.88
2023-01-30T11:57:21.083Z,100010.34
2023-01-30T12:02:33.743Z,99987.13
2023-01-30T12:07:37.424Z,99980.16
2023-01-30T12:12:50.146Z,99977.94
2023-01-30T12:18:14.615Z,99978.63
2023-01-30T12:23:33.311Z,99974.59
2023-01-30T12:28:46.589Z,99987.59
2023-01-30T12:33:49.265Z,99998.66
2023-01-30T12:39:02.224Z,99989.94
2023-01-30T12:44:37.759Z,99994.09
2023-01-30T12:50:06.706Z,99986.34
2023-01-30T12:55:08.563Z,99993.06
2023-01-30T13:00:45.365Z,99995.97
2023-01-30T13:05:56.205Z,100010.75
2023-01-30T13:11:12.656Z,100018.13
2023-01-30T13:16:36.698Z,100010.94
2023-01-30T13:21:53.822Z,100026.53
2023-01-30T13:27:00.230Z,100025.75
2023-01-30T13:32:05.780Z,100035.25
2023-01-30T13:37:12.496Z,100031.28
2023-01-30T13:42:49.901Z,100034.50
2023-01-30T13:48:19.641Z,100072.78
2023-01-30T13:53:39.832Z,100056.28
2023-01-30T13:58:55.247Z,100069.66
2023-01-30T14:04:24.978Z,100065.47
2023-01-30T14:09:29.895Z,100072.41
2023-01-30T14:14:36.737Z,100072.81
2023-01-30T14:20:07.881Z,100076.44
2023-01-30T14:25:30.017Z,100103.09
2023-01-30T14:30:49.777Z,100115.34
2023-01-30T14:36:03.265Z,100132.72
2023-01-30T14:41:04.843Z,100136.34
2023-01-30T14:46:18.616Z,100124.53
2023-01-30T14:51:24.061Z,100134.91
2023-01-30T14:56:40.674Z,100135.94
2023-01-30T15:02:24.006Z,100145.44
2023-01-30T15:07:49.628Z,100148.16
2023-01-30T15:13:20.344Z,100151.31
2023-01-30T15:18:29.754Z,100160.69
2023-01-30T15:23:59.053Z,100167.91
2023-01-30T15:29:42.172Z,100173.00
2023-01-30T15:34:58.651Z,100172.47
2023-01-30T15:40:18.859Z,100161.59
2023-01-30T15:45:48.470Z,100178.56
2023-01-30T15:50:53.900Z,100185.34
2023-01-30T15:55:55.596Z,100183.16
2023-01-30T16:01:00.858Z,100194.69
2023-01-30T16:06:03.857Z,100193.09
2023-01-30T16:11:05.501Z,100218.44
2023-01-30T16:16:15.312Z,100235.75
2023-01-30T16:21:34.231Z,100232.34
2023-01-30T16:26:36.929Z,100238.34
2023-01-30T16:31:39.989Z,100256.22
2023-01-30T16:36:43.739Z,100268.56
2023-01-30T16:41:54.652Z,100280.72
2023-01-30T16:47:00.238Z,100291.72
2023-01-30T16:52:34.675Z,100302.75
2023-01-30T16:57:42.686Z,100310.41
2023-01-30T17:02:55.019Z,100326.31
2023-01-30T17:07:57.831Z,100334.47
2023-01-30T17:12:59.592Z,100339.88
2023-01-30T17:18:01.903Z,100353.69
2023-01-30T17:23:08.433Z,100361.41
2023-01-30T17:28:18.543Z,100365.13
2023-01-30T17:33:20.217Z,100382.72
2023-01-30T17:38:21.861Z,100396.19
2023-01-30T17:43:23.554Z,100400.44
2023-01-30T17:48:25.187Z,100409.75
2023-01-30T17:53:26.808Z,100408.81
2023-01-30T17:58:28.471Z,100417.22
2023-01-30T18:03:30.140Z,100415.22
2023-01-30T18:08:31.730Z,100438.44
2023-01-30T18:13:35.002Z,100440.16
2023-01-30T18:18:37.196Z,100446.09
2023-01-30T18:23:38.832Z,100453.22
2023-01-30T18:28:40.523Z,100459.13
2023-01-30T18:33:44.782Z,100470.50
2023-01-30T18:38:46.851Z,100495.63
2023-01-30T18:43:53.935Z,100496.63
2023-01-30T18:48:56.131Z,100503.91
2023-01-30T18:53:58.242Z,100501.97
2023-01-30T18:59:05.203Z,100517.38
2023-01-30T19:04:09.188Z,100513.81
2023-01-30T19:09:16.023Z,100521.00
2023-01-30T19:14:17.603Z,100515.28
2023-01-30T19:19:19.230Z,100520.75
2023-01-30T19:24:21.302Z,100519.31
2023-01-30T19:29:23.001Z,100531.19
2023-01-30T19:34:24.577Z,100539.69
2023-01-30T19:39:26.196Z,100547.25
2023-01-30T19:44:27.781Z,100567.25
2023-01-30T19:49:30.612Z,100565.69
2023-01-30T19:54:32.784Z,100576.69
2023-01-30T19:59:38.689Z,100582.88
2023-01-30T20:04:40.796Z,100578.88
2023-01-30T20:09:42.482Z,100587.47
2023-01-30T20:14:44.103Z,100602.84
2023-01-30T20:19:45.742Z,100609.59
2023-01-30T20:24:48.776Z,100612.13
2023-01-30T20:29:50.370Z,100613.00
2023-01-30T20:34:52.010Z,100607.81
2023-01-30T20:39:53.691Z,100617.56
2023-01-30T20:44:55.323Z,100631.38
2023-01-30T20:49:56.946Z,100636.50
2023-01-30T20:54:58.703Z,100659.94
2023-01-30T21:00:02.212Z,100672.31
2023-01-30T21:05:04.343Z,100676.13
2023-01-30T21:10:06.140Z,100685.53
2023-01-30T21:15:08.430Z,100684.16
2023-01-30T21:20:10.584Z,100693.13
2023-01-30T21:25:12.943Z,100694.34
2023-01-30T21:30:14.838Z,100701.38
2023-01-30T21:35:16.508Z,100703.25
2023-01-30T21:40:37.000Z,100708.47
2023-01-30T21:45:39.085Z,100715.50
2023-01-30T21:50:41.088Z,100706.97
2023-01-30T21:55:42.872Z,100710.66
2023-01-30T22:00:45.093Z,100713.94
2023-01-30T22:05:46.831Z,100739.34
2023-01-30T22:10:48.820Z,100731.50
2023-01-30T22:15:50.888Z,100737.63
2023-01-30T22:20:52.793Z,100740.38
2023-01-30T22:25:54.693Z,100742.66
2023-01-30T22:31:12.826Z,100748.03
2023-01-30T22:36:15.132Z,100739.38
2023-01-30T22:41:19.548Z,100730.41
2023-01-30T22:46:23.757Z,100735.44
2023-01-30T22:51:28.162Z,100733.81
2023-01-30T22:56:34.477Z,100758.66
2023-01-30T23:01:44.922Z,100758.66
2023-01-30T23:06:47.517Z,100766.34
2023-01-30T23:12:11.273Z,100762.41
2023-01-30T23:17:31.469Z,100778.72
2023-01-30T23:22:33.089Z,100791.53
2023-01-30T23:27:35.448Z,100766.50
2023-01-30T23:32:38.003Z,100767.44
2023-01-30T23:37:58.322Z,100766.97
2023-01-30T23:42:59.923Z,100782.44
2023-01-30T23:48:01.540Z,100778.41
2023-01-30T23:53:04.537Z,100758.78
2023-01-30T23:58:06.158Z,100763.50
